Terminal Aerodrome Forecast
Issued by NWS

Home | Current Version | Previous Version | Text Only | Print | Product List | Glossary On
Versions: 1 2 3 4 5 6 7 8 9 10 11 12 13 14 15 16 17 18
000
FTUS45 KTFX 221700
TAFCTB
TAF
KCTB 221736Z 2218/2318 25024G32KT P6SM SCT150
     FM230200 25015KT P6SM SCT080 BKN150
     FM231500 25022G28KT P6SM SCT100 BKN150=

USA.gov is the U.S. government's official web portal to all federal, state and local government web resources and services.